Pagina principală
METAR-TAF:

METAR-TAF

Aeroporturi :

Triest, Italia

Latitudine: 45-39N, longitudine: 013-45E, elevație: 8 m

Observații meteo curente

Raportul a fost făcut în urmă cu 39 de minute, la 00:55 UTC
Vânt 7 kt de la Est, variabil între Nord/Nord-est și Sud-est
Temperatură 14°C
Umiditate 67%
Presiune 1014 hPa

METAR: LIVT 280055Z AUTO 08007KT 030V130 //// 14/08 Q1014

Ora: 02:34 (01:34 UTC)


TAF: lipsă

Observații și prognoze meteo pentru peste 4.000 de aeroporturi (rapoarte METAR și TAF).

Stațiile disponibile sunt reprezentate pe hartă prin puncte galbene și roșii.

Țineți indicatorul mouse-ului pe punctul dorit pentru a vedea denumirea stației.

Apoi, faceți clic pentru a vedea observațiile și prognozele meteorologice.

Pentru a schimba harta: Pentru mărire, faceți clic pe butoanele verzi cu cruce neagră; pentru micșorare, pe butonul verde cu o liniuță; pentru hărți învecinate, pe săgețile verzi.


METAR-TAF: